sensor_id;sensor_type;location;lat;lon;timestamp;pressure;altitude;pressure_sealevel;temperature;humidity
33191;BME280;19554;42.652;23.364;2023-04-03T00:01:19;94012.56;;;11.31;49.42
33191;BME280;19554;42.652;23.364;2023-04-03T00:03:44;93913.84;;;10.63;49.48
33191;BME280;19554;42.652;23.364;2023-04-03T00:06:11;93989.63;;;11.07;49.90
33191;BME280;19554;42.652;23.364;2023-04-03T00:08:37;94016.59;;;11.20;50.01
33191;BME280;19554;42.652;23.364;2023-04-03T00:11:04;94011.84;;;11.17;50.17
33191;BME280;19554;42.652;23.364;2023-04-03T00:13:29;94014.84;;;11.15;50.35
33191;BME280;19554;42.652;23.364;2023-04-03T00:15:55;93997.66;;;11.07;50.35
33191;BME280;19554;42.652;23.364;2023-04-03T00:18:20;94005.06;;;11.10;50.69
33191;BME280;19554;42.652;23.364;2023-04-03T00:20:46;93995.13;;;11.02;50.61
33191;BME280;19554;42.652;23.364;2023-04-03T00:23:11;94002.53;;;11.05;50.83
33191;BME280;19554;42.652;23.364;2023-04-03T00:25:37;93996.94;;;10.93;50.79
33191;BME280;19554;42.652;23.364;2023-04-03T00:28:03;93992.19;;;10.90;50.68
33191;BME280;19554;42.652;23.364;2023-04-03T00:30:30;93996.56;;;10.86;50.81
33191;BME280;19554;42.652;23.364;2023-04-03T00:32:56;93988.03;;;10.75;50.83
33191;BME280;19554;42.652;23.364;2023-04-03T00:35:22;93990.50;;;10.72;50.73
33191;BME280;19554;42.652;23.364;2023-04-03T00:37:51;94000.59;;;10.75;50.67
33191;BME280;19554;42.652;23.364;2023-04-03T00:40:16;93995.84;;;10.72;51.04
33191;BME280;19554;42.652;23.364;2023-04-03T00:42:43;93998.03;;;10.70;51.32
33191;BME280;19554;42.652;23.364;2023-04-03T00:47:38;94002.38;;;10.65;51.05
33191;BME280;19554;42.652;23.364;2023-04-03T00:50:04;94002.34;;;10.57;51.19
33191;BME280;19554;42.652;23.364;2023-04-03T00:52:30;94000.69;;;10.47;51.46
33191;BME280;19554;42.652;23.364;2023-04-03T00:55:02;93999.81;;;10.38;51.95
33191;BME280;19554;42.652;23.364;2023-04-03T00:57:30;94006.06;;;10.33;52.19
33191;BME280;19554;42.652;23.364;2023-04-03T01:00:00;94002.28;;;10.20;52.14
33191;BME280;19554;42.652;23.364;2023-04-03T01:02:28;94005.69;;;10.12;52.11
33191;BME280;19554;42.652;23.364;2023-04-03T01:04:53;94010.72;;;10.00;52.89
33191;BME280;19554;42.652;23.364;2023-04-03T01:07:24;94007.06;;;9.96;52.95
33191;BME280;19554;42.652;23.364;2023-04-03T01:09:56;93998.69;;;9.89;52.96
33191;BME280;19554;42.652;23.364;2023-04-03T01:12:26;94008.75;;;9.92;53.30
33191;BME280;19554;42.652;23.364;2023-04-03T01:14:55;94006.69;;;9.89;53.27
33191;BME280;19554;42.652;23.364;2023-04-03T01:25:11;94004.88;;;9.98;53.01
33191;BME280;19554;42.652;23.364;2023-04-03T01:27:36;93885.44;;;9.22;53.56
33191;BME280;19554;42.652;23.364;2023-04-03T01:30:02;94008.06;;;10.00;53.50
33191;BME280;19554;42.652;23.364;2023-04-03T01:32:27;93920.75;;;9.42;53.14
33191;BME280;19554;42.652;23.364;2023-04-03T01:34:53;93998.88;;;9.92;53.37
33191;BME280;19554;42.652;23.364;2023-04-03T01:37:18;94003.72;;;9.90;53.52
33191;BME280;19554;42.652;23.364;2023-04-03T01:39:44;94008.25;;;9.90;53.51
33191;BME280;19554;42.652;23.364;2023-04-03T01:42:09;94010.66;;;9.91;53.68
33191;BME280;19554;42.652;23.364;2023-04-03T01:44:36;94008.84;;;9.87;54.27
33191;BME280;19554;42.652;23.364;2023-04-03T01:47:02;93999.75;;;9.88;54.02
33191;BME280;19554;42.652;23.364;2023-04-03T01:49:30;94007.28;;;9.86;53.28
33191;BME280;19554;42.652;23.364;2023-04-03T01:51:55;94013.19;;;9.83;53.46
33191;BME280;19554;42.652;23.364;2023-04-03T01:54:20;93983.59;;;9.57;53.83
33191;BME280;19554;42.652;23.364;2023-04-03T01:56:46;94021.09;;;9.74;53.68
33191;BME280;19554;42.652;23.364;2023-04-03T01:59:11;94022.56;;;9.66;53.94
33191;BME280;19554;42.652;23.364;2023-04-03T02:01:37;93996.22;;;9.51;54.29
33191;BME280;19554;42.652;23.364;2023-04-03T02:04:02;94013.59;;;9.62;54.47
33191;BME280;19554;42.652;23.364;2023-04-03T02:06:27;93970.75;;;9.31;54.35
33191;BME280;19554;42.652;23.364;2023-04-03T02:08:53;94017.94;;;9.58;54.73
33191;BME280;19554;42.652;23.364;2023-04-03T02:11:18;94013.00;;;9.52;55.41
33191;BME280;19554;42.652;23.364;2023-04-03T02:13:44;94004.31;;;9.46;55.42
33191;BME280;19554;42.652;23.364;2023-04-03T02:16:10;94014.56;;;9.53;55.25
33191;BME280;19554;42.652;23.364;2023-04-03T02:18:36;94024.03;;;9.45;55.27
33191;BME280;19554;42.652;23.364;2023-04-03T02:21:02;94022.06;;;9.37;55.46
33191;BME280;19554;42.652;23.364;2023-04-03T02:23:27;94018.66;;;9.17;55.45
33191;BME280;19554;42.652;23.364;2023-04-03T02:25:52;94004.84;;;9.15;55.24
33191;BME280;19554;42.652;23.364;2023-04-03T02:28:18;94012.56;;;9.17;55.25
33191;BME280;19554;42.652;23.364;2023-04-03T02:30:43;94010.09;;;9.20;54.06
33191;BME280;19554;42.652;23.364;2023-04-03T02:33:08;94007.63;;;9.24;54.36
33191;BME280;19554;42.652;23.364;2023-04-03T02:35:34;93997.97;;;9.28;55.07
33191;BME280;19554;42.652;23.364;2023-04-03T02:37:59;94000.34;;;9.30;54.91
33191;BME280;19554;42.652;23.364;2023-04-03T02:40:25;93991.28;;;9.31;54.67
33191;BME280;19554;42.652;23.364;2023-04-03T02:42:50;94002.34;;;9.38;54.47
33191;BME280;19554;42.652;23.364;2023-04-03T02:45:16;94007.34;;;9.25;55.12
33191;BME280;19554;42.652;23.364;2023-04-03T02:47:41;93997.19;;;9.28;55.12
33191;BME280;19554;42.652;23.364;2023-04-03T02:50:06;93952.53;;;8.92;55.25
33191;BME280;19554;42.652;23.364;2023-04-03T02:52:32;93996.78;;;9.20;55.14
33191;BME280;19554;42.652;23.364;2023-04-03T02:54:57;93991.94;;;9.22;55.19
33191;BME280;19554;42.652;23.364;2023-04-03T02:57:23;93984.53;;;9.19;55.44
33191;BME280;19554;42.652;23.364;2023-04-03T02:59:48;93966.78;;;9.01;55.27
33191;BME280;19554;42.652;23.364;2023-04-03T03:02:13;93974.06;;;9.09;55.50
33191;BME280;19554;42.652;23.364;2023-04-03T03:04:39;93981.00;;;9.10;55.26
33191;BME280;19554;42.652;23.364;2023-04-03T03:07:04;93977.41;;;9.01;55.45
33191;BME280;19554;42.652;23.364;2023-04-03T03:09:30;93962.59;;;8.95;55.50
33191;BME280;19554;42.652;23.364;2023-04-03T03:11:56;93981.66;;;9.02;55.45
33191;BME280;19554;42.652;23.364;2023-04-03T03:14:21;93904.19;;;8.57;55.99
33191;BME280;19554;42.652;23.364;2023-04-03T03:16:47;93969.44;;;9.01;56.64
33191;BME280;19554;42.652;23.364;2023-04-03T03:19:12;93957.88;;;8.92;56.50
33191;BME280;19554;42.652;23.364;2023-04-03T03:21:38;93936.34;;;8.74;56.28
33191;BME280;19554;42.652;23.364;2023-04-03T03:24:03;93981.16;;;9.00;55.99
33191;BME280;19554;42.652;23.364;2023-04-03T03:26:28;93975.63;;;8.96;56.52
33191;BME280;19554;42.652;23.364;2023-04-03T03:28:54;93852.88;;;8.24;56.68
33191;BME280;19554;42.652;23.364;2023-04-03T03:31:19;93975.25;;;9.03;56.63
33191;BME280;19554;42.652;23.364;2023-04-03T03:33:45;93936.97;;;8.85;56.71
33191;BME280;19554;42.652;23.364;2023-04-03T03:36:11;93980.06;;;9.01;56.57
33191;BME280;19554;42.652;23.364;2023-04-03T03:38:36;93971.28;;;8.87;56.90
33191;BME280;19554;42.652;23.364;2023-04-03T03:41:02;93988.22;;;8.91;56.60
33191;BME280;19554;42.652;23.364;2023-04-03T03:43:27;93981.34;;;8.90;56.57
33191;BME280;19554;42.652;23.364;2023-04-03T03:45:53;93897.28;;;8.37;56.56
33191;BME280;19554;42.652;23.364;2023-04-03T03:48:20;93978.53;;;8.81;56.30
33191;BME280;19554;42.652;23.364;2023-04-03T03:50:46;93975.78;;;8.72;56.63
33191;BME280;19554;42.652;23.364;2023-04-03T03:53:11;93984.34;;;8.69;57.12
33191;BME280;19554;42.652;23.364;2023-04-03T03:55:37;93980.00;;;8.73;56.99
33191;BME280;19554;42.652;23.364;2023-04-03T03:58:02;93986.03;;;8.79;56.29
33191;BME280;19554;42.652;23.364;2023-04-03T04:00:28;93982.50;;;8.84;55.62
33191;BME280;19554;42.652;23.364;2023-04-03T04:02:54;93991.56;;;8.83;55.85
33191;BME280;19554;42.652;23.364;2023-04-03T04:05:21;93986.72;;;8.85;55.51
33191;BME280;19554;42.652;23.364;2023-04-03T04:07:46;93983.06;;;8.81;55.55
33191;BME280;19554;42.652;23.364;2023-04-03T04:10:11;93984.22;;;8.74;55.76
33191;BME280;19554;42.652;23.364;2023-04-03T04:12:39;93976.94;;;8.66;55.93
33191;BME280;19554;42.652;23.364;2023-04-03T04:15:04;93971.78;;;8.56;55.94
33191;BME280;19554;42.652;23.364;2023-04-03T04:17:30;93986.00;;;8.65;55.97
33191;BME280;19554;42.652;23.364;2023-04-03T04:19:55;93995.56;;;8.66;56.04
33191;BME280;19554;42.652;23.364;2023-04-03T04:22:21;93972.34;;;8.53;55.93
33191;BME280;19554;42.652;23.364;2023-04-03T04:24:46;93996.06;;;8.68;55.48
33191;BME280;19554;42.652;23.364;2023-04-03T04:27:11;93892.34;;;7.98;55.30
33191;BME280;19554;42.652;23.364;2023-04-03T04:29:37;93998.22;;;8.66;55.58
33191;BME280;19554;42.652;23.364;2023-04-03T04:32:03;93993.47;;;8.63;55.91
33191;BME280;19554;42.652;23.364;2023-04-03T04:34:28;93993.31;;;8.54;56.56
33191;BME280;19554;42.652;23.364;2023-04-03T04:36:54;93886.16;;;7.83;56.67
33191;BME280;19554;42.652;23.364;2023-04-03T04:39:20;93998.38;;;8.56;57.01
33191;BME280;19554;42.652;23.364;2023-04-03T04:41:45;94009.44;;;8.63;57.17
33191;BME280;19554;42.652;23.364;2023-04-03T04:44:10;93978.25;;;8.50;57.01
33191;BME280;19554;42.652;23.364;2023-04-03T04:46:36;94009.06;;;8.70;56.76
33191;BME280;19554;42.652;23.364;2023-04-03T04:49:01;94011.63;;;8.75;56.47
33191;BME280;19554;42.652;23.364;2023-04-03T04:51:27;94015.59;;;8.77;56.68
33191;BME280;19554;42.652;23.364;2023-04-03T04:53:52;94008.19;;;8.74;56.40
33191;BME280;19554;42.652;23.364;2023-04-03T04:56:17;94011.06;;;8.78;56.33
33191;BME280;19554;42.652;23.364;2023-04-03T04:58:43;94018.75;;;8.80;56.75
33191;BME280;19554;42.652;23.364;2023-04-03T05:01:10;93919.75;;;8.12;56.41
33191;BME280;19554;42.652;23.364;2023-04-03T05:03:35;94035.63;;;8.89;56.39
33191;BME280;19554;42.652;23.364;2023-04-03T05:06:01;94033.47;;;8.91;56.36
33191;BME280;19554;42.652;23.364;2023-04-03T05:08:26;94042.38;;;9.00;56.59
33191;BME280;19554;42.652;23.364;2023-04-03T05:10:52;94047.13;;;9.03;56.38
33191;BME280;19554;42.652;23.364;2023-04-03T05:13:18;94049.31;;;9.15;56.30
33191;BME280;19554;42.652;23.364;2023-04-03T05:15:44;94052.69;;;9.20;55.85
33191;BME280;19554;42.652;23.364;2023-04-03T05:18:09;94054.28;;;9.21;55.96
33191;BME280;19554;42.652;23.364;2023-04-03T05:20:34;94053.34;;;9.12;56.27
33191;BME280;19554;42.652;23.364;2023-04-03T05:23:00;94048.59;;;9.09;56.53
33191;BME280;19554;42.652;23.364;2023-04-03T05:25:25;94051.78;;;9.11;56.37
33191;BME280;19554;42.652;23.364;2023-04-03T05:27:51;93872.06;;;8.02;56.47
33191;BME280;19554;42.652;23.364;2023-04-03T05:30:16;94046.88;;;9.18;56.62
33191;BME280;19554;42.652;23.364;2023-04-03T05:32:42;94049.28;;;9.34;56.35
33191;BME280;19554;42.652;23.364;2023-04-03T05:35:08;94049.31;;;9.47;56.51
33191;BME280;19554;42.652;23.364;2023-04-03T05:37:34;94041.34;;;9.61;56.29
33191;BME280;19554;42.652;23.364;2023-04-03T05:40:00;94035.91;;;9.66;55.85
33191;BME280;19554;42.652;23.364;2023-04-03T05:42:26;94027.03;;;9.71;55.79
33191;BME280;19554;42.652;23.364;2023-04-03T05:44:51;94039.16;;;9.77;55.61
33191;BME280;19554;42.652;23.364;2023-04-03T05:47:17;94037.00;;;9.79;55.46
33191;BME280;19554;42.652;23.364;2023-04-03T05:49:43;94032.94;;;9.82;55.36
33191;BME280;19554;42.652;23.364;2023-04-03T05:52:27;93936.22;;;9.26;55.24
33191;BME280;19554;42.652;23.364;2023-04-03T05:54:53;94033.72;;;9.96;55.24
33191;BME280;19554;42.652;23.364;2023-04-03T05:57:19;93973.50;;;9.67;55.75
33191;BME280;19554;42.652;23.364;2023-04-03T05:59:45;94027.22;;;10.02;55.77
33191;BME280;19554;42.652;23.364;2023-04-03T06:02:13;94027.22;;;10.02;55.67
33191;BME280;19554;42.652;23.364;2023-04-03T06:04:39;94022.16;;;10.14;55.00
33191;BME280;19554;42.652;23.364;2023-04-03T06:07:04;94019.09;;;10.07;54.75
33191;BME280;19554;42.652;23.364;2023-04-03T06:09:30;93950.84;;;9.56;55.40
33191;BME280;19554;42.652;23.364;2023-04-03T06:11:56;94004.09;;;9.84;56.01
33191;BME280;19554;42.652;23.364;2023-04-03T06:14:24;93970.16;;;9.20;57.41
33191;BME280;19554;42.652;23.364;2023-04-03T06:16:50;94002.13;;;9.34;57.94
33191;BME280;19554;42.652;23.364;2023-04-03T06:19:16;93986.75;;;9.31;58.00
33191;BME280;19554;42.652;23.364;2023-04-03T06:21:41;94008.25;;;9.35;58.20
33191;BME280;19554;42.652;23.364;2023-04-03T06:24:07;94006.69;;;9.34;58.63
33191;BME280;19554;42.652;23.364;2023-04-03T06:26:33;94005.06;;;9.19;59.18
33191;BME280;19554;42.652;23.364;2023-04-03T06:28:59;94009.91;;;9.31;58.76
33191;BME280;19554;42.652;23.364;2023-04-03T06:31:25;94022.16;;;9.59;58.27
33191;BME280;19554;42.652;23.364;2023-04-03T06:33:51;93976.69;;;9.42;57.82
33191;BME280;19554;42.652;23.364;2023-04-03T06:36:18;94035.91;;;9.94;57.50
33191;BME280;19554;42.652;23.364;2023-04-03T06:38:47;94014.56;;;9.94;56.60
33191;BME280;19554;42.652;23.364;2023-04-03T06:41:13;93980.22;;;9.92;56.09
33191;BME280;19554;42.652;23.364;2023-04-03T06:43:39;94031.72;;;10.43;55.70
33191;BME280;19554;42.652;23.364;2023-04-03T06:46:05;94021.19;;;10.60;55.08
33191;BME280;19554;42.652;23.364;2023-04-03T06:48:31;93990.78;;;10.48;54.56
33191;BME280;19554;42.652;23.364;2023-04-03T06:50:56;94026.84;;;10.81;54.28
33191;BME280;19554;42.652;23.364;2023-04-03T06:53:22;94030.31;;;10.82;54.50
33191;BME280;19554;42.652;23.364;2023-04-03T06:55:47;94032.09;;;10.50;54.90
33191;BME280;19554;42.652;23.364;2023-04-03T06:58:13;94008.16;;;10.59;54.78
33191;BME280;19554;42.652;23.364;2023-04-03T07:00:40;94019.50;;;10.87;54.21
33191;BME280;19554;42.652;23.364;2023-04-03T07:03:06;94035.22;;;11.11;54.11
33191;BME280;19554;42.652;23.364;2023-04-03T07:05:32;94026.16;;;11.21;53.78
33191;BME280;19554;42.652;23.364;2023-04-03T07:07:57;94023.13;;;11.36;53.45
33191;BME280;19554;42.652;23.364;2023-04-03T07:10:23;94026.50;;;11.50;53.23
33191;BME280;19554;42.652;23.364;2023-04-03T07:12:48;94017.50;;;11.46;52.99
33191;BME280;19554;42.652;23.364;2023-04-03T07:15:13;94024.31;;;11.52;52.98
33191;BME280;19554;42.652;23.364;2023-04-03T07:17:39;93979.50;;;11.49;52.85
33191;BME280;19554;42.652;23.364;2023-04-03T07:20:06;94013.09;;;11.73;52.49
33191;BME280;19554;42.652;23.364;2023-04-03T07:22:32;94013.41;;;11.80;52.58
33191;BME280;19554;42.652;23.364;2023-04-03T07:24:58;94011.13;;;11.87;52.68
33191;BME280;19554;42.652;23.364;2023-04-03T07:27:24;93996.84;;;12.00;52.29
33191;BME280;19554;42.652;23.364;2023-04-03T07:29:50;93943.03;;;11.53;52.67
33191;BME280;19554;42.652;23.364;2023-04-03T07:32:15;93918.94;;;11.36;52.57
33191;BME280;19554;42.652;23.364;2023-04-03T07:34:41;93917.25;;;11.18;52.98
33191;BME280;19554;42.652;23.364;2023-04-03T07:37:07;94003.28;;;11.59;52.97
33191;BME280;19554;42.652;23.364;2023-04-03T07:39:34;94001.25;;;11.34;54.00
33191;BME280;19554;42.652;23.364;2023-04-03T07:42:00;93993.13;;;11.39;54.03
33191;BME280;19554;42.652;23.364;2023-04-03T07:44:25;93996.06;;;11.29;54.46
33191;BME280;19554;42.652;23.364;2023-04-03T07:46:51;93987.84;;;10.94;54.99
33191;BME280;19554;42.652;23.364;2023-04-03T07:49:17;93987.09;;;10.80;55.26
33191;BME280;19554;42.652;23.364;2023-04-03T07:51:48;93988.34;;;10.74;55.61
33191;BME280;19554;42.652;23.364;2023-04-03T07:54:13;93989.72;;;10.71;56.31
33191;BME280;19554;42.652;23.364;2023-04-03T07:56:39;93986.84;;;10.45;56.76
33191;BME280;19554;42.652;23.364;2023-04-03T07:59:04;93988.34;;;10.37;57.17
33191;BME280;19554;42.652;23.364;2023-04-03T08:01:30;93988.25;;;10.29;57.33
33191;BME280;19554;42.652;23.364;2023-04-03T08:03:57;93989.94;;;10.25;57.53
33191;BME280;19554;42.652;23.364;2023-04-03T08:06:23;93990.16;;;10.14;58.12
33191;BME280;19554;42.652;23.364;2023-04-03T08:08:48;93990.66;;;10.16;58.12
33191;BME280;19554;42.652;23.364;2023-04-03T08:11:13;93950.16;;;10.14;59.56
33191;BME280;19554;42.652;23.364;2023-04-03T08:13:39;93979.53;;;10.51;58.60
33191;BME280;19554;42.652;23.364;2023-04-03T08:16:11;93974.38;;;10.54;57.51
33191;BME280;19554;42.652;23.364;2023-04-03T08:18:37;93976.81;;;10.64;56.99
33191;BME280;19554;42.652;23.364;2023-04-03T08:21:05;93984.22;;;10.67;56.95
33191;BME280;19554;42.652;23.364;2023-04-03T08:23:31;93977.88;;;10.86;56.37
33191;BME280;19554;42.652;23.364;2023-04-03T08:25:56;93961.00;;;10.99;55.57
33191;BME280;19554;42.652;23.364;2023-04-03T08:28:22;93972.13;;;11.24;54.96
33191;BME280;19554;42.652;23.364;2023-04-03T08:30:47;93974.75;;;11.46;54.52
33191;BME280;19554;42.652;23.364;2023-04-03T08:33:12;93971.94;;;11.51;53.87
33191;BME280;19554;42.652;23.364;2023-04-03T08:35:40;93971.19;;;11.59;53.81
33191;BME280;19554;42.652;23.364;2023-04-03T08:38:05;93944.81;;;11.67;53.39
33191;BME280;19554;42.652;23.364;2023-04-03T08:40:31;93956.56;;;11.97;53.09
33191;BME280;19554;42.652;23.364;2023-04-03T08:45:44;93957.19;;;12.20;52.23
33191;BME280;19554;42.652;23.364;2023-04-03T08:48:19;93951.84;;;12.20;52.68
33191;BME280;19554;42.652;23.364;2023-04-03T08:50:47;93940.84;;;12.30;52.05
33191;BME280;19554;42.652;23.364;2023-04-03T08:53:17;93954.88;;;12.36;51.74
33191;BME280;19554;42.652;23.364;2023-04-03T08:55:46;93943.38;;;12.35;51.80
33191;BME280;19554;42.652;23.364;2023-04-03T08:58:19;93936.13;;;12.36;51.91
33191;BME280;19554;42.652;23.364;2023-04-03T09:00:51;93933.28;;;12.49;51.93
33191;BME280;19554;42.652;23.364;2023-04-03T09:03:20;93935.16;;;12.57;51.60
33191;BME280;19554;42.652;23.364;2023-04-03T09:05:51;93929.50;;;12.68;51.51
33191;BME280;19554;42.652;23.364;2023-04-03T09:08:27;93931.53;;;12.71;51.17
33191;BME280;19554;42.652;23.364;2023-04-03T09:11:23;93922.13;;;12.56;51.72
33191;BME280;19554;42.652;23.364;2023-04-03T09:14:01;93923.66;;;12.83;50.84
33191;BME280;19554;42.652;23.364;2023-04-03T09:24:28;93906.69;;;12.53;51.74
33191;BME280;19554;42.652;23.364;2023-04-03T09:27:08;93829.09;;;12.27;51.02
33191;BME280;19554;42.652;23.364;2023-04-03T09:29:39;93891.97;;;12.85;50.64
33191;BME280;19554;42.652;23.364;2023-04-03T09:32:19;93900.50;;;12.87;50.28
33191;BME280;19554;42.652;23.364;2023-04-03T09:34:47;93896.41;;;12.81;50.35
33191;BME280;19554;42.652;23.364;2023-04-03T09:37:44;93896.50;;;13.02;48.81
33191;BME280;19554;42.652;23.364;2023-04-03T09:40:29;93902.97;;;13.10;48.82
33191;BME280;19554;42.652;23.364;2023-04-03T09:43:01;93774.66;;;12.23;49.06
33191;BME280;19554;42.652;23.364;2023-04-03T09:45:35;93891.78;;;12.99;49.16
33191;BME280;19554;42.652;23.364;2023-04-03T09:51:01;93892.25;;;13.10;47.62
33191;BME280;19554;42.652;23.364;2023-04-03T09:53:35;93881.59;;;12.92;47.02
33191;BME280;19554;42.652;23.364;2023-04-03T09:56:19;93881.59;;;12.92;46.78
33191;BME280;19554;42.652;23.364;2023-04-03T09:58:48;93871.31;;;12.94;46.69
33191;BME280;19554;42.652;23.364;2023-04-03T10:01:33;93876.66;;;13.03;46.63
33191;BME280;19554;42.652;23.364;2023-04-03T10:04:17;93871.44;;;13.07;47.10
33191;BME280;19554;42.652;23.364;2023-04-03T10:06:45;93869.06;;;13.05;47.44
33191;BME280;19554;42.652;23.364;2023-04-03T10:09:29;93879.19;;;12.99;47.71
33191;BME280;19554;42.652;23.364;2023-04-03T10:12:11;93880.44;;;13.02;47.58
33191;BME280;19554;42.652;23.364;2023-04-03T10:14:53;93881.22;;;13.02;47.69
33191;BME280;19554;42.652;23.364;2023-04-03T10:20:15;93876.38;;;12.96;47.85
33191;BME280;19554;42.652;23.364;2023-04-03T10:23:14;93883.31;;;12.88;47.99
33191;BME280;19554;42.652;23.364;2023-04-03T10:42:35;93849.78;;;12.82;48.40
33191;BME280;19554;42.652;23.364;2023-04-03T10:50:50;93829.72;;;12.41;48.68
33191;BME280;19554;42.652;23.364;2023-04-03T10:53:24;93845.94;;;12.36;49.41
33191;BME280;19554;42.652;23.364;2023-04-03T10:56:40;93833.03;;;12.38;48.95
33191;BME280;19554;42.652;23.364;2023-04-03T10:59:43;93847.81;;;12.36;49.37
33191;BME280;19554;42.652;23.364;2023-04-03T11:02:35;93844.97;;;12.41;49.95
33191;BME280;19554;42.652;23.364;2023-04-03T11:05:15;93774.38;;;11.98;50.91
33191;BME280;19554;42.652;23.364;2023-04-03T11:07:47;93844.66;;;12.33;51.49
33191;BME280;19554;42.652;23.364;2023-04-03T11:10:20;93856.63;;;12.10;52.93
33191;BME280;19554;42.652;23.364;2023-04-03T11:12:52;93839.97;;;12.04;54.02
33191;BME280;19554;42.652;23.364;2023-04-03T11:15:30;93855.22;;;11.95;54.01
33191;BME280;19554;42.652;23.364;2023-04-03T11:18:02;93862.94;;;11.88;56.02
33191;BME280;19554;42.652;23.364;2023-04-03T11:20:32;93854.25;;;11.82;56.69
33191;BME280;19554;42.652;23.364;2023-04-03T11:23:24;93857.72;;;11.83;57.64
33191;BME280;19554;42.652;23.364;2023-04-03T11:26:05;93857.06;;;11.69;59.00
33191;BME280;19554;42.652;23.364;2023-04-03T11:28:32;93745.63;;;10.86;60.44
33191;BME280;19554;42.652;23.364;2023-04-03T11:31:33;93851.50;;;11.39;61.91
33191;BME280;19554;42.652;23.364;2023-04-03T11:34:38;93856.25;;;11.51;63.66
33191;BME280;19554;42.652;23.364;2023-04-03T11:37:33;93859.38;;;11.35;64.64
33191;BME280;19554;42.652;23.364;2023-04-03T11:40:13;93852.75;;;11.33;65.65
33191;BME280;19554;42.652;23.364;2023-04-03T11:43:06;93859.31;;;11.18;66.91
33191;BME280;19554;42.652;23.364;2023-04-03T11:50:44;93836.81;;;10.71;68.94
33191;BME280;19554;42.652;23.364;2023-04-03T12:03:57;93868.25;;;10.51;73.49
33191;BME280;19554;42.652;23.364;2023-04-03T12:09:01;93873.28;;;10.30;74.28
33191;BME280;19554;42.652;23.364;2023-04-03T12:11:30;93864.72;;;10.42;74.48
33191;BME280;19554;42.652;23.364;2023-04-03T12:40:25;93837.41;;;10.36;78.04
33191;BME280;19554;42.652;23.364;2023-04-03T12:45:23;93777.22;;;9.99;78.12
33191;BME280;19554;42.652;23.364;2023-04-03T12:47:52;93816.19;;;10.31;77.81
33191;BME280;19554;42.652;23.364;2023-04-03T12:50:27;93812.22;;;10.29;78.65
33191;BME280;19554;42.652;23.364;2023-04-03T12:55:31;93802.97;;;10.26;79.05
33191;BME280;19554;42.652;23.364;2023-04-03T12:57:56;93814.13;;;10.28;79.00
33191;BME280;19554;42.652;23.364;2023-04-03T13:00:29;93808.53;;;10.16;77.72
33191;BME280;19554;42.652;23.364;2023-04-03T13:02:55;93756.13;;;9.89;78.03
33191;BME280;19554;42.652;23.364;2023-04-03T13:05:28;93816.00;;;10.28;78.42
33191;BME280;19554;42.652;23.364;2023-04-03T13:08:06;93819.78;;;10.27;77.87
33191;BME280;19554;42.652;23.364;2023-04-03T13:10:46;93820.34;;;10.24;78.51
33191;BME280;19554;42.652;23.364;2023-04-03T13:13:15;93779.69;;;9.95;79.11
33191;BME280;19554;42.652;23.364;2023-04-03T13:15:46;93805.00;;;9.84;79.91
33191;BME280;19554;42.652;23.364;2023-04-03T13:18:23;93823.09;;;9.73;81.99
33191;BME280;19554;42.652;23.364;2023-04-03T13:20:50;93816.56;;;9.57;81.72
33191;BME280;19554;42.652;23.364;2023-04-03T13:23:17;93812.53;;;9.46;81.52
33191;BME280;19554;42.652;23.364;2023-04-03T13:25:46;93808.31;;;9.67;82.50
33191;BME280;19554;42.652;23.364;2023-04-03T13:28:15;93798.28;;;9.64;82.36
33191;BME280;19554;42.652;23.364;2023-04-03T13:33:26;93777.56;;;9.61;82.73
33191;BME280;19554;42.652;23.364;2023-04-03T13:36:03;93806.16;;;9.69;81.77
33191;BME280;19554;42.652;23.364;2023-04-03T13:38:31;93770.50;;;9.43;82.89
33191;BME280;19554;42.652;23.364;2023-04-03T13:41:04;93798.47;;;9.68;83.35
33191;BME280;19554;42.652;23.364;2023-04-03T13:43:33;93803.84;;;9.77;83.48
33191;BME280;19554;42.652;23.364;2023-04-03T13:46:03;93792.91;;;9.78;83.11
33191;BME280;19554;42.652;23.364;2023-04-03T13:48:47;93797.63;;;9.81;83.11
33191;BME280;19554;42.652;23.364;2023-04-03T13:53:50;93796.59;;;9.68;82.29
33191;BME280;19554;42.652;23.364;2023-04-03T13:56:32;93794.38;;;9.48;83.56
33191;BME280;19554;42.652;23.364;2023-04-03T13:59:23;93782.41;;;9.59;84.17
33191;BME280;19554;42.652;23.364;2023-04-03T14:04:27;93794.44;;;9.20;84.87
33191;BME280;19554;42.652;23.364;2023-04-03T14:06:53;93788.50;;;9.23;85.42
33191;BME280;19554;42.652;23.364;2023-04-03T14:09:21;93777.88;;;9.23;85.61
33191;BME280;19554;42.652;23.364;2023-04-03T14:11:49;93779.06;;;9.17;87.40
33191;BME280;19554;42.652;23.364;2023-04-03T14:14:22;93776.19;;;9.28;86.82
33191;BME280;19554;42.652;23.364;2023-04-03T14:16:54;93733.13;;;8.98;86.64
33191;BME280;19554;42.652;23.364;2023-04-03T14:19:24;93774.84;;;9.39;86.83
33191;BME280;19554;42.652;23.364;2023-04-03T14:21:51;93765.06;;;9.48;86.43
33191;BME280;19554;42.652;23.364;2023-04-03T14:24:18;93766.31;;;9.64;86.28
33191;BME280;19554;42.652;23.364;2023-04-03T14:26:44;93759.75;;;9.70;85.34
33191;BME280;19554;42.652;23.364;2023-04-03T14:29:11;93769.94;;;9.91;84.98
33191;BME280;19554;42.652;23.364;2023-04-03T14:31:37;93769.06;;;10.04;84.12
33191;BME280;19554;42.652;23.364;2023-04-03T14:34:02;93770.66;;;10.05;82.95
33191;BME280;19554;42.652;23.364;2023-04-03T14:36:30;93776.72;;;10.19;82.41
33191;BME280;19554;42.652;23.364;2023-04-03T14:38:56;93771.38;;;10.19;82.08
33191;BME280;19554;42.652;23.364;2023-04-03T14:41:23;93769.94;;;10.13;81.30
33191;BME280;19554;42.652;23.364;2023-04-03T14:43:50;93715.31;;;9.80;81.40
33191;BME280;19554;42.652;23.364;2023-04-03T14:46:17;93759.50;;;10.03;81.21
33191;BME280;19554;42.652;23.364;2023-04-03T14:48:44;93760.78;;;10.06;81.50
33191;BME280;19554;42.652;23.364;2023-04-03T14:51:14;93761.56;;;10.06;81.65